createdAt,value
2023-02-08T00:01:28.316Z,11.90
2023-02-08T00:03:56.353Z,11.50
2023-02-08T00:06:24.574Z,11.77
2023-02-08T00:08:52.567Z,11.37
2023-02-08T00:11:21.959Z,12.07
2023-02-08T00:13:50.064Z,12.23
2023-02-08T00:16:18.343Z,11.53
2023-02-08T00:18:46.538Z,11.73
2023-02-08T00:21:17.891Z,11.70
2023-02-08T00:23:46.352Z,11.80
2023-02-08T00:26:14.662Z,11.87
2023-02-08T00:28:45.364Z,11.13
2023-02-08T00:31:13.594Z,11.77
2023-02-08T00:33:42.267Z,11.53
2023-02-08T00:36:12.199Z,12.50
2023-02-08T00:38:43.124Z,12.27
2023-02-08T00:41:11.225Z,11.30
2023-02-08T00:43:39.382Z,11.57
2023-02-08T01:26:36.317Z,11.00
2023-02-08T01:29:07.914Z,10.87
2023-02-08T01:34:44.410Z,12.30
2023-02-08T01:37:12.390Z,12.10
2023-02-08T01:39:40.325Z,12.00
2023-02-08T01:42:11.776Z,12.40
2023-02-08T01:45:23.263Z,11.10
2023-02-08T01:47:56.050Z,11.57
2023-02-08T01:50:30.179Z,11.70
2023-02-08T01:52:58.648Z,11.27
2023-02-08T01:55:29.396Z,12.30
2023-02-08T01:58:03.834Z,13.00
2023-02-08T02:00:33.095Z,11.70
2023-02-08T02:03:02.924Z,11.90
2023-02-08T02:05:35.229Z,12.33
2023-02-08T02:08:03.554Z,11.00
2023-02-08T02:10:33.755Z,11.40
2023-02-08T02:13:07.193Z,11.73
2023-02-08T02:15:35.874Z,11.67
2023-02-08T02:18:07.001Z,12.13
2023-02-08T02:20:59.073Z,11.63
2023-02-08T02:23:58.710Z,11.53
2023-02-08T02:26:45.373Z,11.20
2023-02-08T02:29:48.592Z,11.07
2023-02-08T02:32:32.880Z,11.90
2023-02-08T02:35:06.565Z,12.80
2023-02-08T02:37:52.077Z,11.17
2023-02-08T02:40:27.115Z,11.37
2023-02-08T02:43:19.637Z,11.63
2023-02-08T02:45:54.456Z,11.23
2023-02-08T02:48:32.218Z,10.93
2023-02-08T02:51:04.002Z,10.93
2023-02-08T02:53:46.020Z,10.50
2023-02-08T02:56:17.813Z,11.57
2023-02-08T02:58:46.508Z,10.77
2023-02-08T03:01:15.016Z,10.87
2023-02-08T03:03:44.331Z,11.80
2023-02-08T03:06:15.848Z,11.53
2023-02-08T03:09:21.160Z,11.30
2023-02-08T03:11:57.677Z,11.37
2023-02-08T03:14:35.080Z,11.53
2023-02-08T03:17:23.353Z,11.57
2023-02-08T03:19:59.806Z,11.30
2023-02-08T03:22:36.020Z,12.60
2023-02-08T03:25:08.631Z,11.60
2023-02-08T03:27:41.441Z,10.90
2023-02-08T03:30:14.446Z,11.57
2023-02-08T03:32:47.453Z,11.10
2023-02-08T03:35:21.532Z,11.60
2023-02-08T03:37:55.178Z,11.67
2023-02-08T03:40:28.068Z,11.13
2023-02-08T03:43:00.334Z,11.83
2023-02-08T03:45:31.918Z,11.83
2023-02-08T03:48:03.403Z,11.53
2023-02-08T03:50:36.837Z,10.77
2023-02-08T03:53:06.422Z,11.13
2023-02-08T03:55:37.429Z,11.30
2023-02-08T03:58:09.491Z,12.50
2023-02-08T04:00:41.249Z,11.67
2023-02-08T04:03:14.559Z,11.30
2023-02-08T04:05:44.185Z,11.77
2023-02-08T04:08:12.313Z,11.43
2023-02-08T04:10:40.686Z,11.57
2023-02-08T04:13:08.873Z,10.93
2023-02-08T04:15:36.853Z,11.03
2023-02-08T04:18:05.108Z,11.20
2023-02-08T04:20:33.144Z,11.63
2023-02-08T04:23:02.619Z,11.63
2023-02-08T04:25:30.760Z,11.20
2023-02-08T04:27:58.799Z,11.10
2023-02-08T04:30:26.830Z,11.30
2023-02-08T04:32:54.833Z,11.20
2023-02-08T04:35:22.912Z,11.90
2023-02-08T04:37:51.091Z,12.13
2023-02-08T04:40:20.557Z,11.57
2023-02-08T04:42:48.584Z,11.03
2023-02-08T04:45:16.777Z,12.23
2023-02-08T04:47:44.750Z,11.53
2023-02-08T04:50:12.879Z,12.03
2023-02-08T04:52:40.867Z,11.93
2023-02-08T04:55:09.405Z,11.63
2023-02-08T04:57:38.831Z,12.43
2023-02-08T05:00:07.846Z,12.53
2023-02-08T05:02:36.256Z,11.07
2023-02-08T05:05:04.398Z,11.53
2023-02-08T05:07:32.816Z,11.23
2023-02-08T05:10:00.772Z,12.03
2023-02-08T05:12:28.800Z,10.93
2023-02-08T05:14:58.126Z,11.37
2023-02-08T05:17:26.140Z,11.57
2023-02-08T05:19:54.580Z,10.77
2023-02-08T05:22:22.617Z,11.40
2023-02-08T05:24:50.666Z,11.33
2023-02-08T05:27:18.633Z,11.40
2023-02-08T05:29:46.662Z,11.60
2023-02-08T05:32:16.225Z,11.37
2023-02-08T05:34:44.293Z,11.03
2023-02-08T05:37:14.009Z,11.40
2023-02-08T05:39:42.303Z,12.13
2023-02-08T05:42:10.397Z,12.03
2023-02-08T05:44:38.448Z,11.23
2023-02-08T05:47:06.564Z,10.90
2023-02-08T05:49:35.940Z,11.50
2023-02-08T05:52:03.981Z,11.20
2023-02-08T05:54:31.976Z,11.10
2023-02-08T05:56:59.917Z,11.37
2023-02-08T05:59:28.131Z,11.33
2023-02-08T06:01:56.118Z,10.83
2023-02-08T06:04:24.160Z,10.30
2023-02-08T06:06:53.537Z,10.90
2023-02-08T06:09:21.653Z,10.43
2023-02-08T06:11:49.938Z,10.77
2023-02-08T06:14:18.138Z,11.00
2023-02-08T06:16:46.198Z,11.83
2023-02-08T06:19:14.398Z,11.30
2023-02-08T06:21:42.597Z,10.93
2023-02-08T06:24:12.127Z,11.30
2023-02-08T06:26:40.175Z,12.40
2023-02-08T06:29:08.133Z,11.27
2023-02-08T06:31:37.625Z,10.87
2023-02-08T06:34:05.759Z,11.57
2023-02-08T06:36:34.006Z,12.60
2023-02-08T06:39:02.009Z,10.83
2023-02-08T06:41:31.440Z,12.13
2023-02-08T06:44:01.255Z,11.13
2023-02-08T06:46:29.363Z,10.53
2023-02-08T06:48:59.120Z,11.57
2023-02-08T06:51:27.690Z,10.88
2023-02-08T06:53:55.829Z,10.37
2023-02-08T06:56:23.873Z,11.77
2023-02-08T06:58:53.261Z,10.97
2023-02-08T07:01:21.324Z,10.90
2023-02-08T07:03:49.365Z,11.70
2023-02-08T07:06:19.216Z,11.50
2023-02-08T07:08:48.068Z,11.43
2023-02-08T07:11:19.736Z,11.13
2023-02-08T07:13:48.849Z,12.27
2023-02-08T07:16:19.185Z,12.47
2023-02-08T07:18:47.590Z,11.73
2023-02-08T07:21:16.067Z,12.40
2023-02-08T07:23:44.150Z,11.68
2023-02-08T07:26:14.431Z,11.63
2023-02-08T07:28:42.951Z,11.53
2023-02-08T07:31:12.291Z,11.23
2023-02-08T07:33:41.925Z,12.70
2023-02-08T07:36:11.417Z,12.00
2023-02-08T07:38:39.957Z,12.17
2023-02-08T07:41:10.038Z,12.85
2023-02-08T07:43:39.136Z,12.30
2023-02-08T07:46:08.650Z,12.20
2023-02-08T07:48:39.833Z,11.30
2023-02-08T07:51:10.668Z,11.70
2023-02-08T07:53:39.183Z,12.77
2023-02-08T07:56:07.761Z,11.73
2023-02-08T07:58:35.770Z,12.17
2023-02-08T08:01:16.140Z,12.53
2023-02-08T08:03:48.456Z,11.53
2023-02-08T08:06:17.833Z,13.23
2023-02-08T08:08:47.579Z,12.90
2023-02-08T08:11:15.881Z,11.37
2023-02-08T08:13:43.865Z,11.87
2023-02-08T08:16:11.944Z,10.53
2023-02-08T08:18:40.288Z,11.33
2023-02-08T08:21:08.887Z,11.50
2023-02-08T08:23:38.300Z,12.10
2023-02-08T08:26:13.734Z,13.63
2023-02-08T08:28:42.520Z,12.13
2023-02-08T08:31:12.454Z,13.10
2023-02-08T08:33:40.918Z,11.93
2023-02-08T08:36:10.004Z,12.30
2023-02-08T08:38:40.920Z,11.93
2023-02-08T08:41:11.173Z,10.90
2023-02-08T08:43:39.496Z,11.73
2023-02-08T08:46:08.927Z,12.43
2023-02-08T08:48:38.185Z,11.17
2023-02-08T08:51:06.906Z,11.23
2023-02-08T08:53:36.910Z,12.13
2023-02-08T08:56:06.919Z,10.50
2023-02-08T08:58:34.919Z,10.80
2023-02-08T09:01:02.993Z,10.67
2023-02-08T09:03:31.166Z,10.43
2023-02-08T09:05:59.176Z,10.53
2023-02-08T09:08:27.260Z,10.30
2023-02-08T09:10:55.274Z,10.97
2023-02-08T09:13:24.630Z,9.80
2023-02-08T09:15:52.620Z,10.03
2023-02-08T09:18:20.609Z,10.23
2023-02-08T09:20:48.504Z,10.10
2023-02-08T09:23:16.520Z,9.70
2023-02-08T09:25:44.536Z,9.20
2023-02-08T09:28:12.598Z,10.27
2023-02-08T09:30:42.297Z,9.17
2023-02-08T09:33:10.512Z,8.43
2023-02-08T09:35:38.470Z,9.17
2023-02-08T09:38:06.456Z,9.27
2023-02-08T09:40:43.016Z,8.63
2023-02-08T09:43:15.236Z,8.57
2023-02-08T09:45:59.896Z,8.80
2023-02-08T09:48:33.223Z,8.33
2023-02-08T09:51:08.403Z,7.60
2023-02-08T09:53:41.207Z,8.60
2023-02-08T09:56:15.340Z,7.93
2023-02-08T09:58:45.930Z,8.03
2023-02-08T10:01:21.090Z,8.53
2023-02-08T10:03:51.449Z,8.37
2023-02-08T10:06:21.292Z,8.20
2023-02-08T10:08:51.625Z,8.17
2023-02-08T10:11:41.565Z,7.70
2023-02-08T10:14:31.627Z,7.23
2023-02-08T10:17:11.257Z,6.03
2023-02-08T10:19:54.979Z,7.20
2023-02-08T10:22:36.897Z,8.17
2023-02-08T10:25:42.345Z,8.43
2023-02-08T10:28:33.927Z,7.97
2023-02-08T10:31:11.446Z,8.07
2023-02-08T10:33:48.988Z,7.90
2023-02-08T10:36:21.512Z,8.40
2023-02-08T10:38:52.319Z,7.70
2023-02-08T10:41:25.126Z,8.83
2023-02-08T10:44:00.884Z,8.03
2023-02-08T10:46:34.315Z,8.33
2023-02-08T10:49:10.681Z,8.40
2023-02-08T10:51:38.812Z,8.93
2023-02-08T10:54:06.928Z,8.33
2023-02-08T10:56:41.984Z,8.20
2023-02-08T10:59:17.257Z,8.23
2023-02-08T11:01:48.014Z,7.83
2023-02-08T11:04:18.364Z,8.60
2023-02-08T11:06:47.724Z,8.40
2023-02-08T11:09:25.028Z,7.93
2023-02-08T11:11:54.009Z,8.23
2023-02-08T11:14:35.061Z,9.00
2023-02-08T11:17:25.816Z,8.10
2023-02-08T11:19:55.345Z,7.73
2023-02-08T11:22:25.793Z,7.60
2023-02-08T11:24:59.227Z,7.93
2023-02-08T11:27:36.268Z,7.63
2023-02-08T11:30:28.520Z,8.47
2023-02-08T11:33:23.841Z,8.00
2023-02-08T11:36:05.955Z,7.90
2023-02-08T11:38:36.194Z,7.40
2023-02-08T11:41:14.540Z,6.70
2023-02-08T11:43:43.662Z,6.70
2023-02-08T11:46:12.424Z,6.77
2023-02-08T11:48:47.774Z,7.00
2023-02-08T11:51:30.157Z,6.33
2023-02-08T11:54:00.391Z,6.50
2023-02-08T11:56:30.197Z,7.10
2023-02-08T11:59:02.188Z,6.43
2023-02-08T12:01:31.743Z,6.70
2023-02-08T12:04:02.566Z,6.43
2023-02-08T12:07:01.609Z,5.97
2023-02-08T12:09:42.734Z,6.73
2023-02-08T12:12:18.814Z,5.80
2023-02-08T12:14:53.579Z,18.20
2023-02-08T12:17:52.045Z,6.07
2023-02-08T12:20:37.059Z,6.10
2023-02-08T12:23:29.998Z,6.20
2023-02-08T12:26:09.619Z,5.73
2023-02-08T12:29:01.265Z,5.57
2023-02-08T12:31:42.556Z,5.07
2023-02-08T12:34:17.641Z,5.43
2023-02-08T12:37:14.756Z,5.40
2023-02-08T12:40:11.964Z,5.10
2023-02-08T12:42:51.233Z,5.33
2023-02-08T12:45:46.229Z,5.47
2023-02-08T12:48:41.736Z,5.30
2023-02-08T12:51:21.484Z,5.87
2023-02-08T12:53:55.029Z,5.37
2023-02-08T12:56:28.964Z,5.87
2023-02-08T12:59:24.828Z,5.80
2023-02-08T13:01:57.360Z,6.73
2023-02-08T13:04:33.454Z,6.17
2023-02-08T13:07:05.798Z,6.23
2023-02-08T13:09:44.217Z,6.03
2023-02-08T13:12:17.144Z,6.60
2023-02-08T13:14:51.284Z,6.43
2023-02-08T13:17:25.029Z,6.63
2023-02-08T13:20:00.388Z,5.77
2023-02-08T13:22:31.518Z,5.70
2023-02-08T13:25:08.679Z,5.80
2023-02-08T13:27:38.727Z,5.00
2023-02-08T13:30:08.087Z,5.80
2023-02-08T13:32:43.825Z,5.50
2023-02-08T13:35:17.678Z,5.70
2023-02-08T13:37:52.889Z,5.90
2023-02-08T13:40:28.026Z,4.93
2023-02-08T13:43:01.128Z,4.97
2023-02-08T13:45:34.222Z,4.73
2023-02-08T13:48:04.351Z,4.40
2023-02-08T13:50:50.970Z,4.10
2023-02-08T13:53:20.237Z,4.27
2023-02-08T13:55:57.882Z,4.00
2023-02-08T13:59:05.857Z,3.93
2023-02-08T14:01:37.088Z,3.57
2023-02-08T14:07:41.973Z,3.57
2023-02-08T14:10:31.892Z,3.43
2023-02-08T14:13:04.606Z,3.73
2023-02-08T14:15:38.715Z,3.63
2023-02-08T14:18:23.964Z,4.00
2023-02-08T14:21:04.655Z,3.93
2023-02-08T14:23:35.919Z,3.90
2023-02-08T14:26:08.505Z,4.50
2023-02-08T14:28:40.463Z,4.53
2023-02-08T14:31:11.800Z,4.43
2023-02-08T14:33:44.733Z,4.37
2023-02-08T14:36:27.756Z,4.10
2023-02-08T14:39:24.396Z,4.67
2023-02-08T14:41:57.242Z,4.20
2023-02-08T14:44:59.829Z,4.10
2023-02-08T14:47:54.652Z,4.53
2023-02-08T14:53:28.264Z,4.33
2023-02-08T14:56:02.115Z,4.10
2023-02-08T14:58:33.123Z,3.80
2023-02-08T15:01:08.679Z,4.17
2023-02-08T15:03:37.339Z,4.00
2023-02-08T15:06:27.061Z,4.67
2023-02-08T15:08:56.180Z,4.40
2023-02-08T15:11:27.185Z,4.50
2023-02-08T15:14:00.555Z,4.10
2023-02-08T15:16:35.821Z,4.87
2023-02-08T15:19:06.321Z,3.83
2023-02-08T15:21:39.281Z,4.07
2023-02-08T15:24:34.117Z,4.00
2023-02-08T15:27:02.600Z,4.13
2023-02-08T15:29:50.021Z,3.70
2023-02-08T15:32:22.471Z,3.97
2023-02-08T15:34:55.641Z,3.60
2023-02-08T15:43:14.415Z,3.80
2023-02-08T15:45:43.900Z,4.30
2023-02-08T15:48:14.018Z,4.27
2023-02-08T15:50:43.365Z,3.57
2023-02-08T15:53:34.465Z,3.30
2023-02-08T15:56:05.074Z,3.60
2023-02-08T15:58:40.082Z,3.70
2023-02-08T16:01:16.135Z,3.70
2023-02-08T16:03:48.809Z,4.30
2023-02-08T16:06:24.526Z,3.70
2023-02-08T16:08:57.688Z,4.20
2023-02-08T16:11:29.102Z,4.13
2023-02-08T16:14:18.978Z,4.20
2023-02-08T16:16:49.604Z,4.33
2023-02-08T16:19:24.045Z,4.40
2023-02-08T16:22:11.369Z,4.67
2023-02-08T16:24:40.946Z,4.57
2023-02-08T16:27:21.362Z,4.17
2023-02-08T16:29:49.783Z,4.30
2023-02-08T16:32:26.786Z,4.37
2023-02-08T16:35:15.698Z,4.20
2023-02-08T16:37:44.271Z,4.13
2023-02-08T16:40:42.488Z,4.60
2023-02-08T16:43:17.416Z,4.50
2023-02-08T16:45:45.789Z,4.80
2023-02-08T16:48:33.097Z,4.67
2023-02-08T16:51:22.916Z,4.67
2023-02-08T16:53:52.911Z,4.77
2023-02-08T16:56:22.846Z,4.37
2023-02-08T16:58:52.978Z,4.90
2023-02-08T17:01:24.403Z,5.10
2023-02-08T17:03:53.856Z,5.23
2023-02-08T17:06:29.447Z,5.47
2023-02-08T17:08:58.524Z,5.33
2023-02-08T17:11:47.489Z,5.90
2023-02-08T17:14:17.695Z,6.07
2023-02-08T17:16:45.916Z,6.70
2023-02-08T17:19:18.735Z,6.53
2023-02-08T17:21:46.821Z,6.73
2023-02-08T17:24:14.739Z,5.83
2023-02-08T17:26:44.862Z,6.23
2023-02-08T17:29:15.391Z,6.70
2023-02-08T17:31:43.373Z,6.67
2023-02-08T17:34:11.374Z,7.73
2023-02-08T17:36:41.748Z,8.37
2023-02-08T17:39:11.791Z,9.37
2023-02-08T17:41:41.009Z,9.50
2023-02-08T17:44:10.909Z,10.60
2023-02-08T17:46:40.276Z,10.37
2023-02-08T17:49:08.297Z,9.20
2023-02-08T17:51:36.360Z,9.47
2023-02-08T17:54:05.746Z,9.43
2023-02-08T17:56:35.363Z,9.27
2023-02-08T17:59:05.342Z,9.03
2023-02-08T18:01:33.736Z,9.27
2023-02-08T18:04:03.118Z,8.87
2023-02-08T18:06:31.204Z,7.20
2023-02-08T18:08:59.171Z,6.90
2023-02-08T18:11:27.176Z,6.63
2023-02-08T18:13:55.562Z,5.70
2023-02-08T18:16:25.521Z,6.00
2023-02-08T18:18:56.711Z,5.97
2023-02-08T18:21:26.847Z,5.77
2023-02-08T18:23:55.943Z,5.57
2023-02-08T18:26:25.872Z,6.03
2023-02-08T18:28:54.649Z,5.67
2023-02-08T18:31:22.923Z,6.27
2023-02-08T18:33:52.104Z,6.40
2023-02-08T18:36:21.000Z,6.10
2023-02-08T18:38:52.317Z,5.90
2023-02-08T18:41:22.631Z,6.10
2023-02-08T18:43:51.166Z,6.33
2023-02-08T18:46:21.267Z,6.03
2023-02-08T18:48:50.515Z,5.83
2023-02-08T18:51:19.795Z,5.70
2023-02-08T18:53:50.930Z,6.03
2023-02-08T18:56:21.447Z,6.13
2023-02-08T18:58:49.496Z,5.83
2023-02-08T19:01:19.066Z,5.67
2023-02-08T19:03:47.782Z,5.43
2023-02-08T19:06:18.256Z,5.83
2023-02-08T19:08:46.849Z,6.30
2023-02-08T19:11:18.502Z,5.57
2023-02-08T19:13:46.940Z,5.73
2023-02-08T19:16:15.371Z,5.93
2023-02-08T19:18:43.389Z,5.63
2023-02-08T19:21:14.143Z,5.33
2023-02-08T19:23:42.224Z,5.70
2023-02-08T19:26:15.319Z,5.97
2023-02-08T19:28:44.673Z,5.43
2023-02-08T19:31:14.969Z,5.73
2023-02-08T19:33:44.808Z,5.70
2023-02-08T19:36:14.759Z,5.10
2023-02-08T19:38:43.406Z,5.70
2023-02-08T19:41:16.616Z,5.80
2023-02-08T19:43:46.610Z,7.00
2023-02-08T19:46:16.824Z,8.57
2023-02-08T19:48:44.809Z,9.47
2023-02-08T19:51:13.189Z,8.77
2023-02-08T19:53:41.258Z,9.90
2023-02-08T19:56:12.231Z,10.67
2023-02-08T19:58:40.405Z,10.13
2023-02-08T20:01:11.945Z,11.43
2023-02-08T20:03:39.986Z,12.40
2023-02-08T20:06:14.969Z,12.20
2023-02-08T20:08:43.193Z,10.83
2023-02-08T20:11:19.139Z,10.97
2023-02-08T20:13:48.034Z,10.63
2023-02-08T20:16:17.705Z,8.43
2023-02-08T20:18:46.231Z,8.80
2023-02-08T20:21:14.527Z,8.90
2023-02-08T20:23:42.573Z,9.43
2023-02-08T20:26:12.380Z,10.17
2023-02-08T20:28:42.055Z,9.77
2023-02-08T20:31:10.942Z,10.10
2023-02-08T20:33:40.341Z,9.97
2023-02-08T20:36:10.461Z,10.57
2023-02-08T20:38:38.819Z,10.90
2023-02-08T20:41:08.583Z,9.20
2023-02-08T20:43:36.736Z,9.27
2023-02-08T20:46:07.651Z,9.77
2023-02-08T20:48:36.020Z,9.43
2023-02-08T20:51:11.352Z,9.07
2023-02-08T20:53:40.782Z,9.17
2023-02-08T20:56:10.247Z,8.63
2023-02-08T20:58:38.901Z,8.73
2023-02-08T21:01:09.454Z,10.43
2023-02-08T21:03:38.674Z,9.93
2023-02-08T21:06:14.826Z,10.10
2023-02-08T21:08:42.919Z,10.83
2023-02-08T21:11:11.641Z,12.37
2023-02-08T21:13:39.889Z,12.93
2023-02-08T21:16:08.890Z,13.07
2023-02-08T21:18:37.268Z,15.17
2023-02-08T21:21:06.181Z,14.03
2023-02-08T21:23:36.382Z,13.83
2023-02-08T21:26:07.617Z,14.20
2023-02-08T21:28:36.753Z,11.53
2023-02-08T21:31:07.490Z,11.90
2023-02-08T21:33:36.167Z,11.03
2023-02-08T21:36:05.369Z,11.80
2023-02-08T21:38:34.931Z,10.67
2023-02-08T21:41:07.547Z,10.53
2023-02-08T21:43:36.328Z,11.57
2023-02-08T21:46:04.993Z,12.17
2023-02-08T21:49:09.719Z,10.83
2023-02-08T21:51:55.505Z,12.27
2023-02-08T21:54:49.543Z,12.23
2023-02-08T21:57:19.581Z,12.80
2023-02-08T21:59:49.046Z,12.23
2023-02-08T22:02:21.549Z,12.07
2023-02-08T22:05:08.424Z,12.07
2023-02-08T22:07:45.725Z,12.27
2023-02-08T22:10:17.679Z,11.30
2023-02-08T22:12:47.082Z,11.77
2023-02-08T22:15:17.658Z,10.47
2023-02-08T22:17:46.456Z,10.80
2023-02-08T22:20:34.617Z,11.30
2023-02-08T22:23:03.266Z,11.40
2023-02-08T22:25:33.449Z,10.70
2023-02-08T22:28:02.062Z,10.07
2023-02-08T22:30:30.309Z,10.13
2023-02-08T22:32:58.615Z,10.13
2023-02-08T22:35:45.946Z,10.30
2023-02-08T22:38:14.370Z,10.80
2023-02-08T22:40:45.057Z,10.43
2023-02-08T22:43:13.336Z,11.60
2023-02-08T22:45:42.403Z,10.87
2023-02-08T22:48:11.616Z,11.00
2023-02-08T22:50:40.193Z,10.73
2023-02-08T22:53:08.195Z,11.47
2023-02-08T22:55:36.219Z,11.20
2023-02-08T22:58:05.693Z,11.00
2023-02-08T23:00:33.920Z,10.97
2023-02-08T23:03:01.988Z,11.30
2023-02-08T23:05:30.117Z,11.73
2023-02-08T23:07:58.225Z,11.87
2023-02-08T23:10:26.183Z,11.60
2023-02-08T23:13:12.244Z,10.93
2023-02-08T23:15:44.569Z,12.03
2023-02-08T23:18:13.192Z,12.17
2023-02-08T23:20:42.678Z,11.60
2023-02-08T23:23:10.929Z,12.03
2023-02-08T23:25:40.637Z,11.60
2023-02-08T23:28:09.928Z,12.27
2023-02-08T23:30:41.836Z,11.77
2023-02-08T23:33:10.312Z,11.37
2023-02-08T23:35:40.860Z,11.07
2023-02-08T23:38:09.600Z,11.67
2023-02-08T23:40:37.841Z,11.93
2023-02-08T23:43:06.139Z,11.90
2023-02-08T23:48:22.595Z,12.63
2023-02-08T23:50:58.016Z,11.90
2023-02-08T23:53:26.816Z,12.23
2023-02-08T23:56:06.222Z,11.57
2023-02-08T23:58:34.305Z,12.30
